sensor_id;sensor_type;location;lat;lon;timestamp;temperature;humidity
51719;DHT22;37795;53.236;5.704;2023-04-24T00:00:54;10.80;85.80
51719;DHT22;37795;53.236;5.704;2023-04-24T00:03:23;10.90;85.80
51719;DHT22;37795;53.236;5.704;2023-04-24T00:05:49;10.90;85.60
51719;DHT22;37795;53.236;5.704;2023-04-24T00:08:15;10.90;85.40
51719;DHT22;37795;53.236;5.704;2023-04-24T00:10:41;10.90;85.20
51719;DHT22;37795;53.236;5.704;2023-04-24T00:13:07;10.80;84.90
51719;DHT22;37795;53.236;5.704;2023-04-24T00:15:32;10.80;85.00
51719;DHT22;37795;53.236;5.704;2023-04-24T00:17:58;10.80;85.10
51719;DHT22;37795;53.236;5.704;2023-04-24T00:20:24;10.90;85.20
51719;DHT22;37795;53.236;5.704;2023-04-24T00:22:49;11.00;85.10
51719;DHT22;37795;53.236;5.704;2023-04-24T00:25:15;10.90;84.80
51719;DHT22;37795;53.236;5.704;2023-04-24T00:27:41;10.90;84.80
51719;DHT22;37795;53.236;5.704;2023-04-24T00:30:07;10.90;84.80
51719;DHT22;37795;53.236;5.704;2023-04-24T00:32:33;11.00;84.90
51719;DHT22;37795;53.236;5.704;2023-04-24T00:34:58;11.00;84.70
51719;DHT22;37795;53.236;5.704;2023-04-24T00:37:24;11.00;84.60
51719;DHT22;37795;53.236;5.704;2023-04-24T00:39:50;11.00;84.60
51719;DHT22;37795;53.236;5.704;2023-04-24T00:42:16;11.00;84.60
51719;DHT22;37795;53.236;5.704;2023-04-24T00:44:42;11.00;84.60
51719;DHT22;37795;53.236;5.704;2023-04-24T00:47:07;11.00;84.70
51719;DHT22;37795;53.236;5.704;2023-04-24T00:49:33;11.00;84.50
51719;DHT22;37795;53.236;5.704;2023-04-24T00:51:59;10.90;84.60
51719;DHT22;37795;53.236;5.704;2023-04-24T00:54:25;11.00;84.60
51719;DHT22;37795;53.236;5.704;2023-04-24T00:56:50;11.00;84.60
51719;DHT22;37795;53.236;5.704;2023-04-24T00:59:17;11.00;84.60
51719;DHT22;37795;53.236;5.704;2023-04-24T01:01:44;10.90;84.60
51719;DHT22;37795;53.236;5.704;2023-04-24T01:04:11;11.00;84.80
51719;DHT22;37795;53.236;5.704;2023-04-24T01:06:39;11.10;84.60
51719;DHT22;37795;53.236;5.704;2023-04-24T01:09:05;11.10;84.60
51719;DHT22;37795;53.236;5.704;2023-04-24T01:11:33;11.10;84.50
51719;DHT22;37795;53.236;5.704;2023-04-24T01:13:59;11.10;84.30
51719;DHT22;37795;53.236;5.704;2023-04-24T01:16:25;11.10;84.40
51719;DHT22;37795;53.236;5.704;2023-04-24T01:18:51;11.10;84.30
51719;DHT22;37795;53.236;5.704;2023-04-24T01:21:18;11.20;84.20
51719;DHT22;37795;53.236;5.704;2023-04-24T01:23:45;11.10;84.00
51719;DHT22;37795;53.236;5.704;2023-04-24T01:26:13;11.20;84.00
51719;DHT22;37795;53.236;5.704;2023-04-24T01:28:39;11.10;83.90
51719;DHT22;37795;53.236;5.704;2023-04-24T01:31:05;11.20;83.90
51719;DHT22;37795;53.236;5.704;2023-04-24T01:33:31;11.20;83.70
51719;DHT22;37795;53.236;5.704;2023-04-24T01:35:57;11.20;83.60
51719;DHT22;37795;53.236;5.704;2023-04-24T01:38:23;11.10;83.40
51719;DHT22;37795;53.236;5.704;2023-04-24T01:40:49;11.10;83.70
51719;DHT22;37795;53.236;5.704;2023-04-24T01:43:15;11.10;83.70
51719;DHT22;37795;53.236;5.704;2023-04-24T01:45:41;11.20;83.70
51719;DHT22;37795;53.236;5.704;2023-04-24T01:48:07;11.30;83.40
51719;DHT22;37795;53.236;5.704;2023-04-24T01:50:33;11.30;83.10
51719;DHT22;37795;53.236;5.704;2023-04-24T01:52:59;11.30;82.50
51719;DHT22;37795;53.236;5.704;2023-04-24T01:55:24;11.40;82.00
51719;DHT22;37795;53.236;5.704;2023-04-24T01:57:52;11.50;81.30
51719;DHT22;37795;53.236;5.704;2023-04-24T02:00:17;11.50;80.70
51719;DHT22;37795;53.236;5.704;2023-04-24T02:02:44;11.50;80.30
51719;DHT22;37795;53.236;5.704;2023-04-24T02:05:10;11.60;80.20
51719;DHT22;37795;53.236;5.704;2023-04-24T02:07:36;11.60;80.10
51719;DHT22;37795;53.236;5.704;2023-04-24T02:10:02;11.60;80.00
51719;DHT22;37795;53.236;5.704;2023-04-24T02:12:29;11.60;79.80
51719;DHT22;37795;53.236;5.704;2023-04-24T02:14:55;11.50;79.70
51719;DHT22;37795;53.236;5.704;2023-04-24T02:17:21;11.60;79.70
51719;DHT22;37795;53.236;5.704;2023-04-24T02:19:46;11.50;79.60
51719;DHT22;37795;53.236;5.704;2023-04-24T02:22:12;11.50;79.60
51719;DHT22;37795;53.236;5.704;2023-04-24T02:24:38;11.50;79.60
51719;DHT22;37795;53.236;5.704;2023-04-24T02:27:04;11.50;79.60
51719;DHT22;37795;53.236;5.704;2023-04-24T02:29:30;11.50;79.70
51719;DHT22;37795;53.236;5.704;2023-04-24T02:31:56;11.50;79.70
51719;DHT22;37795;53.236;5.704;2023-04-24T02:34:22;11.50;79.70
51719;DHT22;37795;53.236;5.704;2023-04-24T02:36:48;11.50;79.80
51719;DHT22;37795;53.236;5.704;2023-04-24T02:39:14;11.50;79.90
51719;DHT22;37795;53.236;5.704;2023-04-24T02:41:42;11.40;79.80
51719;DHT22;37795;53.236;5.704;2023-04-24T02:44:08;11.50;79.80
51719;DHT22;37795;53.236;5.704;2023-04-24T02:46:33;11.40;79.80
51719;DHT22;37795;53.236;5.704;2023-04-24T02:48:59;11.40;79.80
51719;DHT22;37795;53.236;5.704;2023-04-24T02:51:25;11.40;79.80
51719;DHT22;37795;53.236;5.704;2023-04-24T02:53:50;11.40;79.90
51719;DHT22;37795;53.236;5.704;2023-04-24T02:56:16;11.40;79.80
51719;DHT22;37795;53.236;5.704;2023-04-24T02:58:42;11.40;79.70
51719;DHT22;37795;53.236;5.704;2023-04-24T03:01:08;11.40;79.80
51719;DHT22;37795;53.236;5.704;2023-04-24T03:03:35;11.40;79.70
51719;DHT22;37795;53.236;5.704;2023-04-24T03:06:01;11.40;79.70
51719;DHT22;37795;53.236;5.704;2023-04-24T03:08:27;11.40;79.60
51719;DHT22;37795;53.236;5.704;2023-04-24T03:10:53;11.40;79.70
51719;DHT22;37795;53.236;5.704;2023-04-24T03:13:18;11.40;79.70
51719;DHT22;37795;53.236;5.704;2023-04-24T03:15:44;11.40;79.70
51719;DHT22;37795;53.236;5.704;2023-04-24T03:18:11;11.40;79.80
51719;DHT22;37795;53.236;5.704;2023-04-24T03:20:37;11.40;79.60
51719;DHT22;37795;53.236;5.704;2023-04-24T03:23:03;11.40;79.70
51719;DHT22;37795;53.236;5.704;2023-04-24T03:25:29;11.40;79.60
51719;DHT22;37795;53.236;5.704;2023-04-24T03:27:55;11.40;79.60
51719;DHT22;37795;53.236;5.704;2023-04-24T03:30:21;11.40;79.30
51719;DHT22;37795;53.236;5.704;2023-04-24T03:32:46;11.40;79.40
51719;DHT22;37795;53.236;5.704;2023-04-24T03:35:12;11.40;79.30
51719;DHT22;37795;53.236;5.704;2023-04-24T03:37:38;11.40;79.40
51719;DHT22;37795;53.236;5.704;2023-04-24T03:40:04;11.40;79.30
51719;DHT22;37795;53.236;5.704;2023-04-24T03:42:31;11.40;79.40
51719;DHT22;37795;53.236;5.704;2023-04-24T03:44:57;11.30;79.20
51719;DHT22;37795;53.236;5.704;2023-04-24T03:47:22;11.30;79.10
51719;DHT22;37795;53.236;5.704;2023-04-24T03:49:48;11.30;79.00
51719;DHT22;37795;53.236;5.704;2023-04-24T03:52:14;11.30;79.00
51719;DHT22;37795;53.236;5.704;2023-04-24T03:54:39;11.30;79.00
51719;DHT22;37795;53.236;5.704;2023-04-24T03:57:05;11.30;79.10
51719;DHT22;37795;53.236;5.704;2023-04-24T03:59:31;11.30;79.00
51719;DHT22;37795;53.236;5.704;2023-04-24T04:01:56;11.20;79.10
51719;DHT22;37795;53.236;5.704;2023-04-24T04:04:22;11.20;79.10
51719;DHT22;37795;53.236;5.704;2023-04-24T04:06:48;11.20;79.00
51719;DHT22;37795;53.236;5.704;2023-04-24T04:09:14;11.20;79.10
51719;DHT22;37795;53.236;5.704;2023-04-24T04:11:40;11.20;79.10
51719;DHT22;37795;53.236;5.704;2023-04-24T04:14:06;11.20;79.00
51719;DHT22;37795;53.236;5.704;2023-04-24T04:16:32;11.20;78.90
51719;DHT22;37795;53.236;5.704;2023-04-24T04:18:57;11.20;78.80
51719;DHT22;37795;53.236;5.704;2023-04-24T04:21:24;11.20;78.90
51719;DHT22;37795;53.236;5.704;2023-04-24T04:23:49;11.20;78.80
51719;DHT22;37795;53.236;5.704;2023-04-24T04:26:15;11.20;78.60
51719;DHT22;37795;53.236;5.704;2023-04-24T04:28:41;11.10;78.80
51719;DHT22;37795;53.236;5.704;2023-04-24T04:31:07;11.10;78.80
51719;DHT22;37795;53.236;5.704;2023-04-24T04:33:33;11.10;78.70
51719;DHT22;37795;53.236;5.704;2023-04-24T04:35:59;11.10;78.90
51719;DHT22;37795;53.236;5.704;2023-04-24T04:38:25;11.10;78.80
51719;DHT22;37795;53.236;5.704;2023-04-24T04:40:55;11.10;78.80
51719;DHT22;37795;53.236;5.704;2023-04-24T04:43:25;11.10;79.00
51719;DHT22;37795;53.236;5.704;2023-04-24T04:45:51;11.10;78.90
51719;DHT22;37795;53.236;5.704;2023-04-24T04:48:18;11.00;79.10
51719;DHT22;37795;53.236;5.704;2023-04-24T04:50:44;11.00;79.00
51719;DHT22;37795;53.236;5.704;2023-04-24T04:53:10;11.10;79.00
51719;DHT22;37795;53.236;5.704;2023-04-24T04:55:36;11.10;78.80
51719;DHT22;37795;53.236;5.704;2023-04-24T04:58:02;11.10;78.70
51719;DHT22;37795;53.236;5.704;2023-04-24T05:00:28;11.10;78.80
51719;DHT22;37795;53.236;5.704;2023-04-24T05:02:59;11.00;78.40
51719;DHT22;37795;53.236;5.704;2023-04-24T05:05:25;11.00;78.60
51719;DHT22;37795;53.236;5.704;2023-04-24T05:07:50;11.00;78.70
51719;DHT22;37795;53.236;5.704;2023-04-24T05:10:16;11.00;78.50
51719;DHT22;37795;53.236;5.704;2023-04-24T05:12:42;11.00;78.30
51719;DHT22;37795;53.236;5.704;2023-04-24T05:15:08;11.00;78.20
51719;DHT22;37795;53.236;5.704;2023-04-24T05:17:33;11.00;78.40
51719;DHT22;37795;53.236;5.704;2023-04-24T05:19:59;11.00;78.40
51719;DHT22;37795;53.236;5.704;2023-04-24T05:22:26;10.90;78.50
51719;DHT22;37795;53.236;5.704;2023-04-24T05:24:51;10.90;78.50
51719;DHT22;37795;53.236;5.704;2023-04-24T05:27:17;10.90;78.20
51719;DHT22;37795;53.236;5.704;2023-04-24T05:29:43;10.90;78.20
51719;DHT22;37795;53.236;5.704;2023-04-24T05:32:09;10.90;78.10
51719;DHT22;37795;53.236;5.704;2023-04-24T05:34:34;10.90;78.20
51719;DHT22;37795;53.236;5.704;2023-04-24T05:37:00;10.90;78.20
51719;DHT22;37795;53.236;5.704;2023-04-24T05:39:26;10.90;78.30
51719;DHT22;37795;53.236;5.704;2023-04-24T05:41:52;10.90;78.30
51719;DHT22;37795;53.236;5.704;2023-04-24T05:44:18;10.80;78.30
51719;DHT22;37795;53.236;5.704;2023-04-24T05:46:44;10.80;78.30
51719;DHT22;37795;53.236;5.704;2023-04-24T05:49:09;10.80;78.40
51719;DHT22;37795;53.236;5.704;2023-04-24T05:51:35;10.80;78.30
51719;DHT22;37795;53.236;5.704;2023-04-24T05:54:01;10.80;78.30
51719;DHT22;37795;53.236;5.704;2023-04-24T05:56:28;10.80;78.10
51719;DHT22;37795;53.236;5.704;2023-04-24T05:58:54;10.80;78.20
51719;DHT22;37795;53.236;5.704;2023-04-24T06:01:20;10.80;78.20
51719;DHT22;37795;53.236;5.704;2023-04-24T06:03:46;10.80;78.10
51719;DHT22;37795;53.236;5.704;2023-04-24T06:06:12;10.80;78.20
51719;DHT22;37795;53.236;5.704;2023-04-24T06:08:38;10.80;78.40
51719;DHT22;37795;53.236;5.704;2023-04-24T06:11:04;10.70;78.30
51719;DHT22;37795;53.236;5.704;2023-04-24T06:13:29;10.80;78.10
51719;DHT22;37795;53.236;5.704;2023-04-24T06:15:55;10.80;77.80
51719;DHT22;37795;53.236;5.704;2023-04-24T06:18:21;10.70;77.90
51719;DHT22;37795;53.236;5.704;2023-04-24T06:20:46;10.70;78.00
51719;DHT22;37795;53.236;5.704;2023-04-24T06:23:12;10.70;77.90
51719;DHT22;37795;53.236;5.704;2023-04-24T06:25:38;10.60;77.80
51719;DHT22;37795;53.236;5.704;2023-04-24T06:28:04;10.60;77.70
51719;DHT22;37795;53.236;5.704;2023-04-24T06:30:30;10.60;77.80
51719;DHT22;37795;53.236;5.704;2023-04-24T06:32:56;10.60;77.90
51719;DHT22;37795;53.236;5.704;2023-04-24T06:35:22;10.50;77.80
51719;DHT22;37795;53.236;5.704;2023-04-24T06:37:48;10.50;77.60
51719;DHT22;37795;53.236;5.704;2023-04-24T06:40:14;10.60;77.40
51719;DHT22;37795;53.236;5.704;2023-04-24T06:42:39;10.60;77.10
51719;DHT22;37795;53.236;5.704;2023-04-24T06:45:05;10.60;76.90
51719;DHT22;37795;53.236;5.704;2023-04-24T06:47:31;10.60;77.10
51719;DHT22;37795;53.236;5.704;2023-04-24T06:56:38;11.00;75.80
51719;DHT22;37795;53.236;5.704;2023-04-24T06:59:03;10.50;76.70
51719;DHT22;37795;53.236;5.704;2023-04-24T07:01:29;10.50;76.70
51719;DHT22;37795;53.236;5.704;2023-04-24T07:03:55;10.40;76.60
51719;DHT22;37795;53.236;5.704;2023-04-24T07:06:21;10.40;76.60
51719;DHT22;37795;53.236;5.704;2023-04-24T07:08:48;10.40;76.70
51719;DHT22;37795;53.236;5.704;2023-04-24T07:11:14;10.40;76.30
51719;DHT22;37795;53.236;5.704;2023-04-24T07:13:40;10.40;76.60
51719;DHT22;37795;53.236;5.704;2023-04-24T07:16:08;10.30;76.50
51719;DHT22;37795;53.236;5.704;2023-04-24T07:18:34;10.30;76.60
51719;DHT22;37795;53.236;5.704;2023-04-24T07:20:59;10.30;76.10
51719;DHT22;37795;53.236;5.704;2023-04-24T07:23:26;10.30;75.90
51719;DHT22;37795;53.236;5.704;2023-04-24T07:25:52;10.40;75.70
51719;DHT22;37795;53.236;5.704;2023-04-24T07:28:17;10.30;76.00
51719;DHT22;37795;53.236;5.704;2023-04-24T07:30:43;10.40;75.90
51719;DHT22;37795;53.236;5.704;2023-04-24T07:33:09;10.30;75.80
51719;DHT22;37795;53.236;5.704;2023-04-24T07:35:38;10.40;75.60
51719;DHT22;37795;53.236;5.704;2023-04-24T07:38:04;10.30;76.00
51719;DHT22;37795;53.236;5.704;2023-04-24T07:40:30;10.30;75.70
51719;DHT22;37795;53.236;5.704;2023-04-24T07:42:55;10.40;75.80
51719;DHT22;37795;53.236;5.704;2023-04-24T07:45:21;10.40;75.80
51719;DHT22;37795;53.236;5.704;2023-04-24T07:47:49;10.40;75.60
51719;DHT22;37795;53.236;5.704;2023-04-24T07:50:15;10.40;75.70
51719;DHT22;37795;53.236;5.704;2023-04-24T07:52:41;10.40;75.50
51719;DHT22;37795;53.236;5.704;2023-04-24T07:55:07;10.40;75.50
51719;DHT22;37795;53.236;5.704;2023-04-24T07:57:33;10.40;75.70
51719;DHT22;37795;53.236;5.704;2023-04-24T07:59:59;10.50;75.40
51719;DHT22;37795;53.236;5.704;2023-04-24T08:02:25;10.50;75.00
51719;DHT22;37795;53.236;5.704;2023-04-24T08:04:55;10.50;75.10
51719;DHT22;37795;53.236;5.704;2023-04-24T08:07:21;10.50;75.30
51719;DHT22;37795;53.236;5.704;2023-04-24T08:09:47;10.40;75.60
51719;DHT22;37795;53.236;5.704;2023-04-24T08:12:13;10.40;75.80
51719;DHT22;37795;53.236;5.704;2023-04-24T08:14:38;10.40;75.60
51719;DHT22;37795;53.236;5.704;2023-04-24T08:17:04;10.40;75.20
51719;DHT22;37795;53.236;5.704;2023-04-24T08:19:30;10.40;75.30
51719;DHT22;37795;53.236;5.704;2023-04-24T08:21:55;10.40;75.10
51719;DHT22;37795;53.236;5.704;2023-04-24T08:24:22;10.40;75.10
51719;DHT22;37795;53.236;5.704;2023-04-24T08:26:48;10.50;74.80
51719;DHT22;37795;53.236;5.704;2023-04-24T08:29:17;10.50;74.70
51719;DHT22;37795;53.236;5.704;2023-04-24T08:31:43;10.60;74.60
51719;DHT22;37795;53.236;5.704;2023-04-24T08:34:09;10.60;74.30
51719;DHT22;37795;53.236;5.704;2023-04-24T08:36:35;10.60;73.80
51719;DHT22;37795;53.236;5.704;2023-04-24T08:39:01;10.70;74.20
51719;DHT22;37795;53.236;5.704;2023-04-24T08:41:27;10.70;73.40
51719;DHT22;37795;53.236;5.704;2023-04-24T08:43:53;10.80;73.00
51719;DHT22;37795;53.236;5.704;2023-04-24T08:46:20;10.80;72.60
51719;DHT22;37795;53.236;5.704;2023-04-24T08:48:48;10.90;72.40
51719;DHT22;37795;53.236;5.704;2023-04-24T08:51:15;10.90;72.10
51719;DHT22;37795;53.236;5.704;2023-04-24T08:53:41;10.90;71.80
51719;DHT22;37795;53.236;5.704;2023-04-24T08:56:07;10.90;71.90
51719;DHT22;37795;53.236;5.704;2023-04-24T08:58:33;11.00;72.20
51719;DHT22;37795;53.236;5.704;2023-04-24T09:00:59;11.00;71.80
51719;DHT22;37795;53.236;5.704;2023-04-24T09:03:27;11.00;72.10
51719;DHT22;37795;53.236;5.704;2023-04-24T09:05:55;11.10;72.90
51719;DHT22;37795;53.236;5.704;2023-04-24T09:08:24;11.10;72.10
51719;DHT22;37795;53.236;5.704;2023-04-24T09:10:50;11.10;72.50
51719;DHT22;37795;53.236;5.704;2023-04-24T09:13:17;11.10;72.30
51719;DHT22;37795;53.236;5.704;2023-04-24T09:15:43;11.00;72.30
51719;DHT22;37795;53.236;5.704;2023-04-24T09:18:09;11.00;71.90
51719;DHT22;37795;53.236;5.704;2023-04-24T09:20:35;10.90;72.10
51719;DHT22;37795;53.236;5.704;2023-04-24T09:23:21;11.00;71.90
51719;DHT22;37795;53.236;5.704;2023-04-24T09:25:54;11.00;71.90
51719;DHT22;37795;53.236;5.704;2023-04-24T09:28:46;11.10;71.90
51719;DHT22;37795;53.236;5.704;2023-04-24T09:31:17;10.90;71.80
51719;DHT22;37795;53.236;5.704;2023-04-24T09:33:56;10.80;71.90
51719;DHT22;37795;53.236;5.704;2023-04-24T09:36:29;10.80;72.30
51719;DHT22;37795;53.236;5.704;2023-04-24T09:38:59;10.70;72.60
51719;DHT22;37795;53.236;5.704;2023-04-24T09:41:25;10.90;73.10
51719;DHT22;37795;53.236;5.704;2023-04-24T09:43:53;10.80;72.60
51719;DHT22;37795;53.236;5.704;2023-04-24T09:46:19;10.80;72.80
51719;DHT22;37795;53.236;5.704;2023-04-24T09:48:47;10.80;72.90
51719;DHT22;37795;53.236;5.704;2023-04-24T09:51:12;10.80;72.30
51719;DHT22;37795;53.236;5.704;2023-04-24T09:53:46;10.50;72.00
51719;DHT22;37795;53.236;5.704;2023-04-24T09:56:12;10.50;72.30
51719;DHT22;37795;53.236;5.704;2023-04-24T09:58:40;10.60;72.60
51719;DHT22;37795;53.236;5.704;2023-04-24T10:01:06;10.60;72.60
51719;DHT22;37795;53.236;5.704;2023-04-24T10:03:33;10.60;72.50
51719;DHT22;37795;53.236;5.704;2023-04-24T10:05:59;10.70;72.50
51719;DHT22;37795;53.236;5.704;2023-04-24T10:08:25;10.70;72.00
51719;DHT22;37795;53.236;5.704;2023-04-24T10:10:52;10.70;71.60
51719;DHT22;37795;53.236;5.704;2023-04-24T10:13:18;10.80;71.40
51719;DHT22;37795;53.236;5.704;2023-04-24T10:15:44;10.70;71.60
51719;DHT22;37795;53.236;5.704;2023-04-24T10:18:12;10.50;71.10
51719;DHT22;37795;53.236;5.704;2023-04-24T10:20:39;10.70;71.40
51719;DHT22;37795;53.236;5.704;2023-04-24T10:23:06;10.80;72.30
51719;DHT22;37795;53.236;5.704;2023-04-24T10:25:34;10.50;71.90
51719;DHT22;37795;53.236;5.704;2023-04-24T10:28:01;10.50;71.50
51719;DHT22;37795;53.236;5.704;2023-04-24T10:30:28;10.50;70.80
51719;DHT22;37795;53.236;5.704;2023-04-24T10:32:53;10.50;71.70
51719;DHT22;37795;53.236;5.704;2023-04-24T10:35:20;10.50;71.50
51719;DHT22;37795;53.236;5.704;2023-04-24T10:37:55;10.40;71.40
51719;DHT22;37795;53.236;5.704;2023-04-24T10:40:27;10.30;71.00
51719;DHT22;37795;53.236;5.704;2023-04-24T10:42:53;10.10;72.20
51719;DHT22;37795;53.236;5.704;2023-04-24T10:45:20;10.00;71.30
51719;DHT22;37795;53.236;5.704;2023-04-24T10:56:39;10.40;71.70
51719;DHT22;37795;53.236;5.704;2023-04-24T10:59:07;9.70;71.20
51719;DHT22;37795;53.236;5.704;2023-04-24T11:01:38;9.90;72.40
51719;DHT22;37795;53.236;5.704;2023-04-24T11:04:04;10.10;70.60
51719;DHT22;37795;53.236;5.704;2023-04-24T11:06:34;10.20;71.30
51719;DHT22;37795;53.236;5.704;2023-04-24T11:09:08;10.50;70.70
51719;DHT22;37795;53.236;5.704;2023-04-24T11:11:36;10.40;69.50
51719;DHT22;37795;53.236;5.704;2023-04-24T11:14:08;10.40;71.00
51719;DHT22;37795;53.236;5.704;2023-04-24T11:16:42;10.30;68.80
51719;DHT22;37795;53.236;5.704;2023-04-24T11:21:53;10.70;71.50
51719;DHT22;37795;53.236;5.704;2023-04-24T11:24:27;10.60;70.60
51719;DHT22;37795;53.236;5.704;2023-04-24T11:27:20;10.40;71.10
51719;DHT22;37795;53.236;5.704;2023-04-24T11:35:01;10.40;71.90
51719;DHT22;37795;53.236;5.704;2023-04-24T11:37:39;10.30;72.30
51719;DHT22;37795;53.236;5.704;2023-04-24T11:40:08;10.40;73.20
51719;DHT22;37795;53.236;5.704;2023-04-24T11:42:38;10.70;73.00
51719;DHT22;37795;53.236;5.704;2023-04-24T11:45:15;10.60;72.10
51719;DHT22;37795;53.236;5.704;2023-04-24T11:47:42;10.80;68.70
51719;DHT22;37795;53.236;5.704;2023-04-24T11:50:12;11.10;69.70
51719;DHT22;37795;53.236;5.704;2023-04-24T11:52:40;11.20;67.60
51719;DHT22;37795;53.236;5.704;2023-04-24T11:55:24;11.10;67.70
51719;DHT22;37795;53.236;5.704;2023-04-24T11:57:56;10.70;67.40
51719;DHT22;37795;53.236;5.704;2023-04-24T12:00:27;11.00;68.80
51719;DHT22;37795;53.236;5.704;2023-04-24T12:03:10;11.10;68.10
51719;DHT22;37795;53.236;5.704;2023-04-24T12:05:36;10.70;67.70
51719;DHT22;37795;53.236;5.704;2023-04-24T12:08:02;10.60;69.00
51719;DHT22;37795;53.236;5.704;2023-04-24T12:10:30;11.00;69.50
51719;DHT22;37795;53.236;5.704;2023-04-24T12:12:57;11.40;69.90
51719;DHT22;37795;53.236;5.704;2023-04-24T12:15:23;11.10;66.70
51719;DHT22;37795;53.236;5.704;2023-04-24T12:17:53;11.00;67.70
51719;DHT22;37795;53.236;5.704;2023-04-24T12:20:26;11.10;68.40
51719;DHT22;37795;53.236;5.704;2023-04-24T12:22:54;10.90;66.60
51719;DHT22;37795;53.236;5.704;2023-04-24T12:25:24;10.90;67.00
51719;DHT22;37795;53.236;5.704;2023-04-24T12:27:57;11.00;66.30
51719;DHT22;37795;53.236;5.704;2023-04-24T12:30:40;11.10;65.70
51719;DHT22;37795;53.236;5.704;2023-04-24T12:33:06;11.20;67.20
51719;DHT22;37795;53.236;5.704;2023-04-24T12:35:33;11.40;67.20
51719;DHT22;37795;53.236;5.704;2023-04-24T12:38:12;11.40;67.60
51719;DHT22;37795;53.236;5.704;2023-04-24T12:40:39;11.10;69.00
51719;DHT22;37795;53.236;5.704;2023-04-24T12:43:20;11.00;67.80
51719;DHT22;37795;53.236;5.704;2023-04-24T12:45:49;10.80;69.00
51719;DHT22;37795;53.236;5.704;2023-04-24T12:48:14;11.10;70.10
51719;DHT22;37795;53.236;5.704;2023-04-24T12:50:40;10.50;68.20
51719;DHT22;37795;53.236;5.704;2023-04-24T12:53:09;10.50;68.30
51719;DHT22;37795;53.236;5.704;2023-04-24T12:55:35;10.60;69.60
51719;DHT22;37795;53.236;5.704;2023-04-24T12:58:01;10.60;70.40
51719;DHT22;37795;53.236;5.704;2023-04-24T13:00:27;10.20;70.30
51719;DHT22;37795;53.236;5.704;2023-04-24T13:02:53;10.10;70.70
51719;DHT22;37795;53.236;5.704;2023-04-24T13:05:21;10.10;71.10
51719;DHT22;37795;53.236;5.704;2023-04-24T13:07:47;10.20;71.70
51719;DHT22;37795;53.236;5.704;2023-04-24T13:10:13;10.00;72.10
51719;DHT22;37795;53.236;5.704;2023-04-24T13:12:39;10.00;70.60
51719;DHT22;37795;53.236;5.704;2023-04-24T13:15:06;9.90;70.80
51719;DHT22;37795;53.236;5.704;2023-04-24T13:17:32;10.10;71.10
51719;DHT22;37795;53.236;5.704;2023-04-24T13:19:58;10.10;72.40
51719;DHT22;37795;53.236;5.704;2023-04-24T13:22:24;10.00;71.70
51719;DHT22;37795;53.236;5.704;2023-04-24T13:24:50;9.90;71.00
51719;DHT22;37795;53.236;5.704;2023-04-24T13:27:16;9.90;71.80
51719;DHT22;37795;53.236;5.704;2023-04-24T13:29:42;9.80;71.00
51719;DHT22;37795;53.236;5.704;2023-04-24T13:32:08;10.00;70.90
51719;DHT22;37795;53.236;5.704;2023-04-24T13:34:34;9.90;72.30
51719;DHT22;37795;53.236;5.704;2023-04-24T13:37:01;10.20;71.30
51719;DHT22;37795;53.236;5.704;2023-04-24T13:39:29;9.90;71.80
51719;DHT22;37795;53.236;5.704;2023-04-24T13:41:55;9.80;70.80
51719;DHT22;37795;53.236;5.704;2023-04-24T13:44:22;10.10;71.00
51719;DHT22;37795;53.236;5.704;2023-04-24T13:46:51;10.10;70.80
51719;DHT22;37795;53.236;5.704;2023-04-24T13:49:17;9.90;72.80
51719;DHT22;37795;53.236;5.704;2023-04-24T13:51:44;10.00;71.60
51719;DHT22;37795;53.236;5.704;2023-04-24T13:54:11;10.10;71.50
51719;DHT22;37795;53.236;5.704;2023-04-24T13:56:37;9.80;71.40
51719;DHT22;37795;53.236;5.704;2023-04-24T13:59:02;9.70;71.70
51719;DHT22;37795;53.236;5.704;2023-04-24T14:01:28;9.60;72.40
51719;DHT22;37795;53.236;5.704;2023-04-24T14:03:55;9.70;72.50
51719;DHT22;37795;53.236;5.704;2023-04-24T14:06:21;9.90;72.20
51719;DHT22;37795;53.236;5.704;2023-04-24T14:08:47;9.90;71.80
51719;DHT22;37795;53.236;5.704;2023-04-24T14:11:13;9.70;71.90
51719;DHT22;37795;53.236;5.704;2023-04-24T14:13:41;10.00;72.60
51719;DHT22;37795;53.236;5.704;2023-04-24T14:16:07;9.90;71.30
51719;DHT22;37795;53.236;5.704;2023-04-24T14:18:33;9.70;71.90
51719;DHT22;37795;53.236;5.704;2023-04-24T14:20:59;10.00;73.10
51719;DHT22;37795;53.236;5.704;2023-04-24T14:23:26;10.00;71.90
51719;DHT22;37795;53.236;5.704;2023-04-24T14:25:52;9.70;73.00
51719;DHT22;37795;53.236;5.704;2023-04-24T14:28:19;9.60;71.40
51719;DHT22;37795;53.236;5.704;2023-04-24T14:30:46;9.70;73.10
51719;DHT22;37795;53.236;5.704;2023-04-24T14:33:12;9.70;73.00
51719;DHT22;37795;53.236;5.704;2023-04-24T14:35:38;9.80;73.10
51719;DHT22;37795;53.236;5.704;2023-04-24T14:38:05;9.80;72.70
51719;DHT22;37795;53.236;5.704;2023-04-24T14:40:30;9.60;73.50
51719;DHT22;37795;53.236;5.704;2023-04-24T14:42:58;9.50;73.40
51719;DHT22;37795;53.236;5.704;2023-04-24T14:45:24;9.50;74.10
51719;DHT22;37795;53.236;5.704;2023-04-24T14:47:50;9.40;74.90
51719;DHT22;37795;53.236;5.704;2023-04-24T14:50:16;9.40;75.50
51719;DHT22;37795;53.236;5.704;2023-04-24T14:52:42;9.10;75.60
51719;DHT22;37795;53.236;5.704;2023-04-24T14:55:08;9.30;75.60
51719;DHT22;37795;53.236;5.704;2023-04-24T14:57:34;9.40;75.30
51719;DHT22;37795;53.236;5.704;2023-04-24T15:00:02;9.60;75.10
51719;DHT22;37795;53.236;5.704;2023-04-24T15:02:28;9.40;76.20
51719;DHT22;37795;53.236;5.704;2023-04-24T15:04:54;9.30;76.50
51719;DHT22;37795;53.236;5.704;2023-04-24T15:07:20;9.30;76.40
51719;DHT22;37795;53.236;5.704;2023-04-24T15:09:46;9.20;76.60
51719;DHT22;37795;53.236;5.704;2023-04-24T15:12:12;9.30;77.20
51719;DHT22;37795;53.236;5.704;2023-04-24T15:14:38;9.40;76.60
51719;DHT22;37795;53.236;5.704;2023-04-24T15:17:04;9.30;76.50
51719;DHT22;37795;53.236;5.704;2023-04-24T15:19:31;9.30;75.90
51719;DHT22;37795;53.236;5.704;2023-04-24T15:21:56;9.40;74.60
51719;DHT22;37795;53.236;5.704;2023-04-24T15:24:22;9.40;76.30
51719;DHT22;37795;53.236;5.704;2023-04-24T15:26:48;9.20;77.40
51719;DHT22;37795;53.236;5.704;2023-04-24T15:29:13;9.20;77.20
51719;DHT22;37795;53.236;5.704;2023-04-24T15:31:39;9.20;77.90
51719;DHT22;37795;53.236;5.704;2023-04-24T15:34:06;9.30;77.50
51719;DHT22;37795;53.236;5.704;2023-04-24T15:36:32;9.20;78.10
51719;DHT22;37795;53.236;5.704;2023-04-24T15:38:58;9.30;77.80
51719;DHT22;37795;53.236;5.704;2023-04-24T15:41:23;9.20;78.00
51719;DHT22;37795;53.236;5.704;2023-04-24T15:43:49;9.40;77.80
51719;DHT22;37795;53.236;5.704;2023-04-24T15:46:15;9.50;77.30
51719;DHT22;37795;53.236;5.704;2023-04-24T15:48:44;9.30;77.20
51719;DHT22;37795;53.236;5.704;2023-04-24T15:51:10;9.40;76.20
51719;DHT22;37795;53.236;5.704;2023-04-24T15:53:36;9.30;77.10